INDIA METEOROLOGICAL DEPARTMENT, R.M.C. NEW DELHI
Dated:1 - 7 - 2016
METARS


Agartala   
VEAT 010600Z 16006KT 6000 SCT018 SCT025 FEW030CB 33/26 Q1000 NOSIG=
Ahmedabad  
VAAH 010530Z 25006KT 5000 FU SCT020 SCT025 34/25 Q1001 NOSIG=
Allahabad  
VEAB 010530Z 02003KT 6000 FEW030 BKN250 37/25 Q0997 NOSIG=
Amritsar   
VIAR 010530Z 14007KT 100V180 3000 HZ SCT100 35/26 Q0997 NOSIG=
Aurangabad 
VAAU 010600Z 27006KT 6000 FEW020 SCT025 BKN100 30/23 Q1005=
Bangalore  
VOBL 010600Z 27015KT 9999 SCT012 SCT020 26/21 Q1011 NOSIG=
Baroda     
VABO 010400Z 19006KT 6000 SCT015 SCT020 BKN080 30/25 Q1001=
Bhubaneswar
VEBS 010530Z 01002KT 5000 HZ SCT018 32/28 Q0997 NOSIG=
Bhuntar    
VIBR 010500Z 18004KT 6000 BKN030 28/22 Q1004=
Chennai    
VOMM 010600Z 24010G20KT 9000 SCT020 SCT100 33/23 Q1003 NOSIG=
Coimbatore 
VOCB 010600Z 23012G25KT 8000 FEW015 32/20 Q1009 NOSIG=
Colombo    
VCBI 010540Z 23009KT 200V270 9999 SCT016 30/25 Q1010 NOSIG =
Delhi      
VIDP 010530Z 26008KT 3500 HZ SCT035 BKN100 34/26 Q0999 NOSIG =
Dehradun   
VIDN 010530Z 22003KT 2500 HZ SCT015 OVC060 27/26 Q1001=
Gauhati    
VEGT 010530Z 00000KT 5000 BR SCT018 FEW025CB BKN100 32/27 Q1002 NOSIG=
Gaya       
VEGY 010530Z NIL=
Gaggal     
VIGG 010430Z 13004KT 5000 BR FEW015 SCT030 BKN080 26/25 Q1002=
Fursatganj
VERB 010600Z 09006KT 6000 SCT020 BKN100 39/25 Q0996=
Hyderabad  
VOHS 010600Z 27024KT 6000 SCT015 BKN100 29/23 Q1006 NOSIG=
Imphal     
VEIM 010500Z 16013KT 5000-RA FEW008 SCT018 BKN100 30/23 Q1006 TEMPO 5000RA =
Indore     
VAID 010600Z 29008KT 5000 HZ SCT020 SCT100 29/24 Q1005 NOSIG=
Jabalpur   
VAJB 010400Z 27002KT 6000 SCT025 SCT100 31/26 Q1001=
Jaipur     
VIJP 010530Z 31005KT 2500 -DZ BKN030 FEW035CB 26/23 Q1002 NOSIG=
Kochi      
VOCI 010600Z NIL=
Kolkata    
VECC 010600Z 10008KT 3500 -RA SCT018 SCT025 FEW030CB BKN100 31/28 Q0998 TEMPO TL0730 2000 TSRA=
Kozhikode  
VOCL 010600Z 24011KT 8000 FEW015 SCT018 31/26 Q1009 NOSIG=
Lucknow    
VILK 010530Z 07003KT 5000 HZ SCT015 SCT020 FEW030CB BKN100 35/28 Q0997 NOSIG=
Madurai    
VOMD 010600Z 27016KT 7000 FEW020 36/19 Q1006 NOSIG=
Mohanbari  
VEMN 010600Z 05010KT 3500 -RA SCT007 SCT018 FEW025CB OVC090 26/26 Q1003 TEMPO 1500 -RA =
Mumbai     
VABB 010530Z 24005KT 0650 R27/0800 +SHRA SCT008 SCT012 FEW025TCU OVC080 29/28 Q1003 NOSIG=
Nagpur     
VANP 010500Z 29007KT 5000 HZ SCT020 BKN100 33/25 Q1002 NOSIG=
Patna      
VEPT 010530Z 10008KT 4000 HZ SCT018 FEW030CB BKN100 35/26 Q0998 NOSIG=
Raipur     
VERP 010600Z 31002KT 6000 FEW020 SCT025 34/26 Q1000 NOSIG=
Safdarjung
VIDD 010500Z 26008KT 2500 HZ SCT040 BKN100 33/27 Q0999 NOSIG=
Shimla    
SPECI VISM 010500Z 27006KT 5000 HZ FEW040 26/20 Q1009
Ranchi     
VERC 010530Z 09007KT 5000 HZ SCT015 SCT025 31/24 Q1003 NOSIG=
Trichy     
VOTR 010600Z 28018G29KT 6000 FEW016 SCT100 35/19 Q1005 NOSIG=
Trivandrum 
VOTV 010600Z 28011KT 5000 HZ FEW010 SCT015 31/26 Q1009 NOSIG=
Udaipur    
VAUD 010500Z 32006KT 6000 SCT100 33/22 Q1003 NOSIG=
Varanasi   
VEBN 010530Z 07005KT 6000 SCT100 38/25 Q0998=
Vizag      
VOVZ 010500Z 22005KT 6000 FEW018 BKN090 29/25 Q0998 TEMPO 5000 DZ =
Male       
VRMM 010500Z 25010KT 9999 SCT018TCU BKN270 31/26 Q1011 NOSIG=
Gan        
VRMG 010500Z VRB02KT 9999 FEW018TCU SCT270 31/26 Q1010=
Kathmandu   
VNKT 010550Z 06005KT 2500 +RA FEW008 FEW020CB SCT025 OVC090 20/20 Q1010 NOSIG CB TO S SW W N NE AND E=
Dhaka      
VGHS 010600Z 08006KT 4000 HZ SCT012 FEW025CB BKN100 30/25 Q1000 TEMPO TSRA=
Colombo     
VCBI 010540Z 23009KT 200V270 9999 SCT016 30/25 Q1010 NOSIG =
Karachi     
OPKC 010555Z 27007KT 5000 HZ NSC 35/24 Q0998 NOSIG=
Lahore      
OPLA 010555Z 17007KT 4000 FU FEW040 SCT100 37/28 Q0996 NOSIG=
Leh        
VILH 010530Z 31007KT 6000 FEW070 SCT100 27/M01 Q1016 NOSIG=
Sri Nagar  
VISR 010530Z 08003KT 6000 FEW025 29/18 Q1009 NOSIG=
Jammu      
VIJU 010530Z 22003KT 6000 SCT025 BKN200 35/25 Q0996 NOSIG=
Bhuj-Rudra 
VABJ 010400Z 20009KT 6000 SCT025 32/22 Q1000 NOSIG=
Gorakhpur  
VEGK 010430Z 09007KT 6000 FEW010 SCT012 BKN020 29/26 Q0999 TEMPO RA=
Bagdogra   
VEBD 010530Z 02005KT 4000 RA BKN008 SCT020 OVC080 27/26 Q1002 TEMPO 3000=
Pune       
VAPO 010540Z 25009G19KT 5000 RA SCT010 SCT015 BKN080 25/24 Q1008 NOSIG=
Chandigarh 
VICG 010430Z 14010KT 5000 BR FEW020 SCT025 BKN080 30/21 Q999 TEMPO - RA=